Terminal Aerodrome Forecast
Issued by NWS Springfield, MO

Home | Current Version | Previous Version | Text Only | Print | Product List | Glossary Off
Versions: 1 2 3 4 5 6 7 8 9 10 11 12

528
FTUS43 KSGF 240520
TAFSGF
TAF
KSGF 240520Z 2406/2506 12007KT P6SM SCT050
     FM241400 15008KT P6SM SKC
     FM241700 16010KT P6SM SCT050
      TEMPO 2419/2423 BKN050
     FM250100 14010KT P6SM SKC=

USA.gov is the U.S. government's official web portal to all federal, state and local government web resources and services.